Warning: Javascript must be enabled to use all the features on this page!


Page Loading - Please Wait...

Click to hideNews Bulletins

Peak Streamflow for the Nation

USGS 05425500 ROCK RIVER AT WATERTOWN, WI

Jefferson County, Wisconsin
Hydrologic Unit Code 07090001
Latitude  43°11'17", Longitude  88°43'34" NAD83
Drainage area 969  square miles
Gage datum 792.56 feet above NAVD88
Output formats
Table
Graph
Tab-separated file
peakfq (watstore) format
Reselect output format
Water
Year
Date Gage
Height
(feet)
Stream-
flow
(cfs)
1932 1932-01-13 2.393 1,5705
1933 1933-05-20 3.903,6 3,3905
1934 1934-04-04 3.08 1,0105
1935 1935-03-20 3.94 2,1405
1936 1936-03-22 3.80 1,8105
1937 1937-02-21 4.50 2,8005
1938 1938-02-13 4.842 3,3405
1939 1939-03-15 3.59 1,4905
1940 1940-06-28 4.76 2,8005
1941 1941-04-20 3.82 1,6705
1942 1942-06-12 3.35 1,1705
1943 1943-03-16 5.36 3,7605
1944 1944-03-14 4.18 2,0005
1945 1945-03-25 3.232 1,0405
1946 1946-03-14 5.27 3,6005
1947 1947-04-11 3.74 1,5805
1948 1948-03-21 5.05 3,2905
1949 1949-03-15 3.55 1,3805
1950 1950-07-20 4.43 2,4305
1951 1951-04-29 5.10 3,3405
1952 1952-03-24 5.69 4,1805
1953 1953-03-27 3.90 1,8105
1954 1954-07-07 3.94 1,6405
1955 1955-08-02 4.13 2,0905
1956 1956-05-13 3.87 1,7705
1957 1957-06-06 3.41 1,1905
1958 1958-03-08 2.86 6675
1959 1959-04-04 6.32 5,0305
1960 1960-05-07 5.09 3,3305
1961 1961-03-28 3.77 1,6905
1962 1962-04-05 4.87 2,8005
1963 1963-03-29 3.35 1,2405
1964 1964-03-18 2.33 4335
1965 1965-09-21 4.44 2,1405
1966 1965-10-01 4.44 2,1405
1967 1967-04-10 3.12 1,0405
1968 1968-06-29 3.43 1,3105
1969 1969-04-13 3.88 1,7405
1970 1970-05-16 3.00 9365
1977 1977-07-24 2.60 6605
1978 1978-07-08   1,9001,2,5
1979 1979-03-31 6.19 5,0805
1980 1980-09-23 3.98 1,8505
1981 1981-02-23 3.73 1,6705
1982 1982-04-03 4.95 3,1505
1983 1983-04-04 4.03 1,9905
1984 1984-06-26 4.022 1,9905
1985 1985-03-10 4.96 3,1805
1986 1986-03-24 5.54 4,0305
1987 1986-10-05 5.49 3,9605
1988 1988-03-10 3.382 1,3205
1989 1989-04-06 3.70 1,6405
1990 1990-03-24 4.49 2,3705
1991 1991-04-14 4.23 2,1005
1992 1992-03-16 4.18 1,8605
1993 1993-04-20 6.03 4,6205
1994 1994-03-18 4.222 2,0705
1995 1995-08-20   1,5001,2,5
1996 1996-06-18 5.51 3,7905
1997 1997-04-07 4.172 2,0205
1998 1998-04-16 4.88 2,8805
1999 1999-04-23 4.72 2,6805
2000 2000-05-19 5.37 3,5705
2001 2001-06-18 4.46 2,3605
2002 2002-03-09 4.29 2,1605
2003 2003-05-19 3.57 1,4205
2004 2004-06-12 6.09 4,7305
2005 2005-02-15 3.70 1,5805
2006 2006-04-07 4.04 1,9105
2007 2007-04-03 5.19 3,4705
2008 2008-06-13 7.81 7,6005
2009 2009-03-15 5.45 3,9105
2010 2010-07-22 5.60 4,1205
2011 2011-04-20 5.12 3,3405
2012 2012-05-09 3.98 2,0405
2013 2013-04-18 6.27 4,9605
2014 2014-07-02 5.24 3,4305
2015 2015-04-09 4.61 2,5405
2016 2016-04-13 5.05 2,8405
2017 2017-03-09 5.10 2,9705
2018 2018-09-09 6.17 4,560
2019 2019-03-14 5.42 3,7305
2020 2019-10-11 5.62 3,8805
2021 2020-12-12 3.52 1,6905
2022 2022-06-16 5.17 3,5405
?
  Peak Gage-Height Qualification Codes.
?
  Peak Streamflow Qualification Codes.